createdAt,value
2023-11-18T00:00:54.767Z,0
2023-11-18T00:02:10.926Z,0
2023-11-18T00:03:27.104Z,0
2023-11-18T00:04:43.278Z,0
2023-11-18T00:05:59.432Z,0
2023-11-18T00:07:15.606Z,0
2023-11-18T00:08:31.786Z,0
2023-11-18T00:09:47.951Z,0
2023-11-18T00:11:04.122Z,0
2023-11-18T00:12:19.293Z,0
2023-11-18T00:13:35.457Z,0
2023-11-18T00:14:51.629Z,0
2023-11-18T00:16:07.800Z,0
2023-11-18T00:17:23.965Z,0
2023-11-18T00:18:40.144Z,0
2023-11-18T00:19:56.309Z,0
2023-11-18T00:21:12.487Z,0
2023-11-18T00:22:28.654Z,0
2023-11-18T00:23:44.833Z,0
2023-11-18T00:25:01.003Z,0
2023-11-18T00:26:17.176Z,0
2023-11-18T00:27:33.344Z,0
2023-11-18T00:28:49.502Z,0
2023-11-18T00:30:04.687Z,0
2023-11-18T00:31:20.862Z,0
2023-11-18T00:32:37.040Z,0
2023-11-18T00:33:53.199Z,0
2023-11-18T00:35:09.380Z,0
2023-11-18T00:36:25.544Z,0
2023-11-18T00:37:41.719Z,0
2023-11-18T00:38:57.885Z,0
2023-11-18T00:40:14.052Z,0
2023-11-18T00:41:30.223Z,0
2023-11-18T00:42:46.387Z,0
2023-11-18T00:44:02.566Z,0
2023-11-18T00:45:18.717Z,0
2023-11-18T00:46:34.898Z,0
2023-11-18T00:47:50.073Z,0
2023-11-18T00:49:06.255Z,0
2023-11-18T00:50:22.431Z,0
2023-11-18T00:51:38.589Z,0
2023-11-18T00:52:54.775Z,0
2023-11-18T00:54:10.947Z,0
2023-11-18T00:55:27.118Z,0
2023-11-18T00:56:43.300Z,0
2023-11-18T00:57:59.456Z,0
2023-11-18T00:59:15.642Z,0
2023-11-18T01:00:31.807Z,0
2023-11-18T01:01:47.985Z,0
2023-11-18T01:03:04.165Z,0
2023-11-18T01:04:20.339Z,0
2023-11-18T01:05:35.520Z,0
2023-11-18T01:06:51.699Z,0
2023-11-18T01:08:07.878Z,0
2023-11-18T01:09:24.035Z,0
2023-11-18T01:10:40.222Z,0
2023-11-18T01:11:56.386Z,0
2023-11-18T01:13:12.575Z,0
2023-11-18T01:14:28.744Z,0
2023-11-18T01:15:44.909Z,0
2023-11-18T01:17:01.081Z,0
2023-11-18T01:18:17.248Z,0
2023-11-18T01:19:33.421Z,0
2023-11-18T01:20:49.611Z,0
2023-11-18T01:22:05.784Z,0
2023-11-18T01:23:20.968Z,0
2023-11-18T01:24:37.131Z,0
2023-11-18T01:25:53.297Z,0
2023-11-18T01:27:09.464Z,0
2023-11-18T01:28:25.641Z,0
2023-11-18T01:29:41.812Z,0
2023-11-18T01:30:57.970Z,0
2023-11-18T01:32:14.154Z,0
2023-11-18T01:33:30.321Z,0
2023-11-18T01:34:46.493Z,0
2023-11-18T01:36:02.672Z,0
2023-11-18T01:37:18.838Z,0
2023-11-18T01:38:35.009Z,0
2023-11-18T01:39:51.174Z,0
2023-11-18T01:41:06.357Z,0
2023-11-18T01:42:22.523Z,0
2023-11-18T01:43:38.703Z,0
2023-11-18T01:44:54.873Z,0
2023-11-18T01:46:11.032Z,0
2023-11-18T01:47:27.218Z,0
2023-11-18T01:48:43.390Z,0
2023-11-18T01:49:59.548Z,0
2023-11-18T01:51:15.733Z,0
2023-11-18T01:52:31.892Z,0
2023-11-18T01:53:48.086Z,0
2023-11-18T01:55:04.249Z,0
2023-11-18T01:56:20.425Z,0
2023-11-18T01:57:36.600Z,0
2023-11-18T01:58:51.805Z,0
2023-11-18T02:00:07.978Z,0
2023-11-18T02:01:24.145Z,0
2023-11-18T02:02:40.318Z,0
2023-11-18T02:03:56.507Z,0
2023-11-18T02:05:12.664Z,0
2023-11-18T02:06:28.857Z,0
2023-11-18T02:07:45.023Z,0
2023-11-18T02:09:01.195Z,0
2023-11-18T02:10:17.369Z,0
2023-11-18T02:11:33.560Z,0
2023-11-18T02:12:49.723Z,0
2023-11-18T02:14:05.907Z,0
2023-11-18T02:15:22.083Z,0
2023-11-18T02:16:37.273Z,0
2023-11-18T02:17:53.438Z,0
2023-11-18T02:19:09.631Z,0
2023-11-18T02:20:25.797Z,0
2023-11-18T02:21:41.976Z,0
2023-11-18T02:22:58.148Z,0
2023-11-18T02:24:14.312Z,0
2023-11-18T02:25:30.498Z,0
2023-11-18T02:26:46.656Z,0
2023-11-18T02:28:02.841Z,0
2023-11-18T02:29:19.013Z,0
2023-11-18T02:30:35.194Z,0
2023-11-18T02:31:51.366Z,0
2023-11-18T02:33:07.545Z,0
2023-11-18T02:34:23.731Z,0
2023-11-18T02:35:38.919Z,0
2023-11-18T02:36:55.085Z,0
2023-11-18T02:38:11.280Z,0
2023-11-18T02:39:27.444Z,0
2023-11-18T02:40:42.635Z,0
2023-11-18T02:41:58.806Z,0
2023-11-18T02:43:14.970Z,0
2023-11-18T02:44:31.147Z,0
2023-11-18T02:45:47.318Z,0
2023-11-18T02:47:03.487Z,0
2023-11-18T02:48:19.666Z,0
2023-11-18T02:49:35.838Z,0
2023-11-18T02:50:52.017Z,0
2023-11-18T02:52:08.191Z,0
2023-11-18T02:53:24.356Z,0
2023-11-18T02:54:40.554Z,0
2023-11-18T02:55:56.720Z,0
2023-11-18T02:57:12.901Z,0
2023-11-18T02:58:28.098Z,0
2023-11-18T02:59:44.281Z,0
2023-11-18T03:01:00.461Z,0
2023-11-18T03:02:16.635Z,0
2023-11-18T03:03:32.812Z,0
2023-11-18T03:04:48.998Z,0
2023-11-18T03:06:05.183Z,0
2023-11-18T03:07:21.362Z,0
2023-11-18T03:08:37.542Z,0
2023-11-18T03:09:53.721Z,0
2023-11-18T03:11:09.921Z,0
2023-11-18T03:12:26.093Z,0
2023-11-18T03:13:42.265Z,0
2023-11-18T03:14:58.458Z,0
2023-11-18T03:16:14.622Z,0
2023-11-18T03:17:29.813Z,0
2023-11-18T03:18:45.996Z,0
2023-11-18T03:20:02.198Z,0
2023-11-18T03:21:18.366Z,0
2023-11-18T03:22:34.543Z,0
2023-11-18T03:23:50.732Z,0
2023-11-18T03:25:06.894Z,0
2023-11-18T03:26:23.080Z,0
2023-11-18T03:27:39.239Z,0
2023-11-18T03:28:55.418Z,0
2023-11-18T03:30:11.606Z,0
2023-11-18T03:31:27.782Z,0
2023-11-18T03:32:43.969Z,0
2023-11-18T03:35:15.319Z,0
2023-11-18T03:36:31.496Z,0
2023-11-18T03:37:47.675Z,0
2023-11-18T03:39:03.861Z,0
2023-11-18T03:40:20.039Z,0
2023-11-18T03:41:36.216Z,0
2023-11-18T03:42:52.391Z,0
2023-11-18T03:44:08.570Z,0
2023-11-18T03:45:24.743Z,0
2023-11-18T03:46:40.928Z,0
2023-11-18T03:47:57.093Z,0
2023-11-18T03:49:13.280Z,0
2023-11-18T03:50:29.445Z,0
2023-11-18T03:51:44.635Z,0
2023-11-18T03:53:00.828Z,0
2023-11-18T03:54:17.013Z,0
2023-11-18T03:55:33.179Z,0
2023-11-18T03:56:49.367Z,0
2023-11-18T03:58:05.537Z,0
2023-11-18T03:59:21.709Z,0
2023-11-18T04:00:37.881Z,0
2023-11-18T04:01:54.053Z,0
2023-11-18T04:03:10.246Z,0
2023-11-18T04:04:26.424Z,0
2023-11-18T04:05:42.604Z,0
2023-11-18T04:06:58.776Z,0
2023-11-18T04:08:13.973Z,0
2023-11-18T04:09:30.145Z,0
2023-11-18T04:10:46.325Z,0
2023-11-18T04:12:02.510Z,0
2023-11-18T04:13:18.669Z,0
2023-11-18T04:14:34.847Z,0
2023-11-18T04:15:51.041Z,0
2023-11-18T04:17:07.214Z,0
2023-11-18T04:18:23.398Z,0
2023-11-18T04:19:39.577Z,0
2023-11-18T04:20:55.757Z,0
2023-11-18T04:22:11.929Z,0
2023-11-18T04:23:28.101Z,0
2023-11-18T04:24:44.273Z,0
2023-11-18T04:25:59.450Z,0
2023-11-18T04:27:15.634Z,0
2023-11-18T04:28:31.807Z,0
2023-11-18T04:29:47.971Z,0
2023-11-18T04:31:04.149Z,0
2023-11-18T04:32:20.323Z,0
2023-11-18T04:33:36.498Z,0
2023-11-18T04:34:52.673Z,0
2023-11-18T04:36:08.852Z,0
2023-11-18T04:37:25.026Z,0
2023-11-18T04:38:41.198Z,0
2023-11-18T04:39:57.382Z,0
2023-11-18T04:41:13.569Z,0
2023-11-18T04:42:29.746Z,0
2023-11-18T04:43:45.920Z,0
2023-11-18T04:45:02.119Z,0
2023-11-18T04:46:18.284Z,0
2023-11-18T04:47:33.482Z,0
2023-11-18T04:48:49.668Z,0
2023-11-18T04:50:05.847Z,0
2023-11-18T04:51:22.012Z,0
2023-11-18T04:52:38.197Z,0
2023-11-18T04:53:54.384Z,0
2023-11-18T04:55:10.542Z,0
2023-11-18T04:56:26.736Z,0
2023-11-18T04:57:42.915Z,0
2023-11-18T04:58:59.094Z,0
2023-11-18T05:00:15.272Z,0
2023-11-18T05:01:31.456Z,0
2023-11-18T05:02:47.624Z,0
2023-11-18T05:04:02.810Z,0
2023-11-18T05:05:18.993Z,0
2023-11-18T05:06:35.179Z,0
2023-11-18T05:07:51.360Z,0
2023-11-18T05:09:07.523Z,0
2023-11-18T05:10:23.702Z,0
2023-11-18T05:11:39.888Z,0
2023-11-18T05:12:56.053Z,0
2023-11-18T05:14:12.233Z,0
2023-11-18T05:15:28.411Z,0
2023-11-18T05:16:44.611Z,0
2023-11-18T05:18:00.775Z,0
2023-11-18T05:19:16.956Z,0
2023-11-18T05:20:33.136Z,0
2023-11-18T05:21:49.328Z,0
2023-11-18T05:23:04.528Z,0
2023-11-18T05:24:20.705Z,0
2023-11-18T05:25:36.897Z,0
2023-11-18T05:26:53.064Z,0
2023-11-18T05:28:09.248Z,0
2023-11-18T05:29:25.430Z,0
2023-11-18T05:30:41.612Z,0
2023-11-18T05:31:57.787Z,0
2023-11-18T05:33:13.978Z,0
2023-11-18T05:34:30.143Z,0
2023-11-18T05:35:46.324Z,0
2023-11-18T05:37:02.508Z,0
2023-11-18T05:38:18.673Z,0
2023-11-18T05:39:33.863Z,0
2023-11-18T05:40:50.049Z,0
2023-11-18T05:42:06.214Z,0
2023-11-18T05:43:22.393Z,0
2023-11-18T05:44:38.565Z,0
2023-11-18T05:45:54.751Z,0
2023-11-18T05:47:10.931Z,0
2023-11-18T05:48:27.110Z,0
2023-11-18T05:49:43.282Z,0
2023-11-18T05:50:59.462Z,0
2023-11-18T05:52:15.642Z,0
2023-11-18T05:53:31.804Z,0
2023-11-18T05:54:47.989Z,0
2023-11-18T05:56:03.167Z,0
2023-11-18T05:57:19.350Z,0
2023-11-18T05:58:35.520Z,0
2023-11-18T05:59:51.686Z,0
2023-11-18T06:01:07.869Z,0
2023-11-18T06:02:24.049Z,0
2023-11-18T06:03:40.227Z,0
2023-11-18T06:04:56.406Z,0
2023-11-18T06:06:12.564Z,0
2023-11-18T06:07:28.738Z,0
2023-11-18T06:08:44.901Z,0
2023-11-18T06:10:01.087Z,0
2023-11-18T06:11:17.259Z,0
2023-11-18T06:12:32.435Z,0
2023-11-18T06:13:48.615Z,0
2023-11-18T06:15:04.765Z,0
2023-11-18T06:16:20.950Z,0
2023-11-18T06:17:37.130Z,0
2023-11-18T06:18:53.299Z,0
2023-11-18T06:20:09.482Z,0
2023-11-18T06:21:25.660Z,0
2023-11-18T06:22:41.828Z,0
2023-11-18T06:23:58.005Z,0
2023-11-18T06:25:14.190Z,0
2023-11-18T06:26:30.362Z,0
2023-11-18T06:27:46.521Z,0
2023-11-18T06:29:02.700Z,0
2023-11-18T06:30:17.877Z,0
2023-11-18T06:31:34.061Z,0
2023-11-18T06:32:50.219Z,0
2023-11-18T06:34:06.406Z,0
2023-11-18T06:35:22.557Z,0
2023-11-18T06:36:38.730Z,0
2023-11-18T06:37:54.914Z,0
2023-11-18T06:39:11.079Z,0
2023-11-18T06:40:27.258Z,0
2023-11-18T06:41:43.444Z,4
2023-11-18T06:42:59.609Z,4
2023-11-18T06:44:15.795Z,4
2023-11-18T06:45:31.960Z,0
2023-11-18T06:46:48.139Z,4
2023-11-18T06:48:03.323Z,4
2023-11-18T06:49:19.495Z,4
2023-11-18T06:50:35.674Z,4
2023-11-18T06:51:51.867Z,4
2023-11-18T06:53:08.053Z,4
2023-11-18T06:54:24.218Z,8
2023-11-18T06:55:39.422Z,8
2023-11-18T06:56:55.588Z,8
2023-11-18T06:58:11.759Z,8
2023-11-18T06:59:27.945Z,8
2023-11-18T07:00:44.117Z,8
2023-11-18T07:02:00.302Z,8
2023-11-18T07:03:16.478Z,8
2023-11-18T07:04:32.633Z,12
2023-11-18T07:05:48.812Z,12
2023-11-18T07:07:04.991Z,16
2023-11-18T07:08:21.142Z,16
2023-11-18T07:09:37.324Z,16
2023-11-18T07:10:53.487Z,20
2023-11-18T07:12:08.676Z,20
2023-11-18T07:13:24.854Z,20
2023-11-18T07:14:41.013Z,28
2023-11-18T07:15:57.198Z,28
2023-11-18T07:17:13.365Z,28
2023-11-18T07:18:29.528Z,28
2023-11-18T07:19:45.695Z,28
2023-11-18T07:21:01.865Z,32
2023-11-18T07:22:18.038Z,40
2023-11-18T07:23:34.203Z,44
2023-11-18T07:24:50.375Z,44
2023-11-18T07:26:06.554Z,48
2023-11-18T07:27:22.726Z,48
2023-11-18T07:28:37.930Z,52
2023-11-18T07:29:54.101Z,52
2023-11-18T07:31:10.269Z,52
2023-11-18T07:32:26.447Z,48
2023-11-18T07:33:42.618Z,52
2023-11-18T07:34:58.805Z,52
2023-11-18T07:36:14.990Z,56
2023-11-18T07:37:31.155Z,60
2023-11-18T07:38:47.341Z,60
2023-11-18T07:40:03.505Z,56
2023-11-18T07:41:19.686Z,56
2023-11-18T07:42:35.864Z,60
2023-11-18T07:43:52.057Z,60
2023-11-18T07:45:08.223Z,60
2023-11-18T07:46:24.408Z,60
2023-11-18T07:47:40.601Z,68
2023-11-18T07:48:56.773Z,72
2023-11-18T07:50:12.954Z,72
2023-11-18T07:51:29.131Z,80
2023-11-18T07:52:44.328Z,80
2023-11-18T07:54:00.507Z,84
2023-11-18T07:55:16.672Z,88
2023-11-18T07:56:32.846Z,88
2023-11-18T07:57:49.026Z,88
2023-11-18T07:59:05.203Z,92
2023-11-18T08:00:21.374Z,96
2023-11-18T08:01:37.533Z,100
2023-11-18T08:02:53.712Z,104
2023-11-18T08:04:09.884Z,104
2023-11-18T08:05:26.064Z,104
2023-11-18T08:06:42.227Z,108
2023-11-18T08:07:58.407Z,108
2023-11-18T08:09:14.585Z,112
2023-11-18T08:10:29.777Z,108
2023-11-18T08:11:45.955Z,112
2023-11-18T08:13:02.118Z,112
2023-11-18T08:14:18.305Z,108
2023-11-18T08:15:34.474Z,108
2023-11-18T08:16:50.656Z,112
2023-11-18T08:18:06.826Z,120
2023-11-18T08:19:23.001Z,128
2023-11-18T08:20:39.187Z,132
2023-11-18T08:21:55.338Z,132
2023-11-18T08:23:11.531Z,136
2023-11-18T08:24:27.689Z,144
2023-11-18T08:25:43.878Z,148
2023-11-18T08:27:00.032Z,148
2023-11-18T08:28:15.222Z,152
2023-11-18T08:29:31.401Z,152
2023-11-18T08:30:47.588Z,156
2023-11-18T08:32:03.764Z,160
2023-11-18T08:33:19.919Z,164
2023-11-18T08:34:36.098Z,168
2023-11-18T08:35:52.283Z,168
2023-11-18T08:37:08.441Z,164
2023-11-18T08:38:24.622Z,160
2023-11-18T08:39:40.799Z,164
2023-11-18T08:40:56.978Z,168
2023-11-18T08:42:13.146Z,168
2023-11-18T08:43:29.335Z,164
2023-11-18T08:44:45.500Z,160
2023-11-18T08:46:00.684Z,160
2023-11-18T08:47:16.843Z,164
2023-11-18T08:48:33.035Z,172
2023-11-18T08:49:49.200Z,176
2023-11-18T08:51:05.379Z,184
2023-11-18T08:52:21.540Z,188
2023-11-18T08:53:37.709Z,192
2023-11-18T08:54:53.881Z,192
2023-11-18T08:56:10.054Z,196
2023-11-18T08:57:26.218Z,196
2023-11-18T08:58:42.391Z,204
2023-11-18T08:59:58.569Z,204
2023-11-18T09:01:14.722Z,208
2023-11-18T09:02:30.899Z,212
2023-11-18T09:03:46.091Z,220
2023-11-18T09:05:02.267Z,232
2023-11-18T09:06:18.434Z,240
2023-11-18T09:07:34.598Z,252
2023-11-18T09:08:50.778Z,264
2023-11-18T09:10:06.950Z,272
2023-11-18T09:11:23.114Z,276
2023-11-18T09:12:39.287Z,288
2023-11-18T09:13:55.453Z,284
2023-11-18T09:15:11.625Z,280
2023-11-18T09:16:27.797Z,276
2023-11-18T09:17:43.962Z,272
2023-11-18T09:19:00.118Z,256
2023-11-18T09:20:16.298Z,252
2023-11-18T09:21:31.489Z,244
2023-11-18T09:22:47.660Z,248
2023-11-18T09:24:03.852Z,248
2023-11-18T09:25:20.024Z,236
2023-11-18T09:26:36.199Z,232
2023-11-18T09:27:52.380Z,232
2023-11-18T09:29:08.552Z,220
2023-11-18T09:30:24.726Z,200
2023-11-18T09:31:40.877Z,172
2023-11-18T09:32:57.043Z,152
2023-11-18T09:34:13.213Z,136
2023-11-18T09:35:29.386Z,128
2023-11-18T09:36:45.551Z,128
2023-11-18T09:38:01.731Z,140
2023-11-18T09:39:16.926Z,152
2023-11-18T09:40:33.079Z,168
2023-11-18T09:41:49.264Z,180
2023-11-18T09:43:05.415Z,192
2023-11-18T09:44:21.594Z,192
2023-11-18T09:45:37.753Z,200
2023-11-18T09:46:53.932Z,220
2023-11-18T09:48:10.110Z,244
2023-11-18T09:49:26.289Z,260
2023-11-18T09:50:42.454Z,264
2023-11-18T09:51:58.622Z,276
2023-11-18T09:54:30.970Z,280
2023-11-18T09:55:47.142Z,276
2023-11-18T09:57:02.339Z,280
2023-11-18T09:58:18.517Z,288
2023-11-18T09:59:34.683Z,284
2023-11-18T10:00:50.872Z,292
2023-11-18T10:02:07.035Z,300
2023-11-18T10:03:23.227Z,300
2023-11-18T10:04:39.389Z,288
2023-11-18T10:05:55.564Z,272
2023-11-18T10:07:11.739Z,260
2023-11-18T10:08:27.912Z,248
2023-11-18T10:09:44.087Z,240
2023-11-18T10:11:00.276Z,236
2023-11-18T10:12:16.438Z,236
2023-11-18T10:13:32.617Z,240
2023-11-18T10:14:47.796Z,244
2023-11-18T10:16:03.965Z,260
2023-11-18T10:17:20.146Z,276
2023-11-18T10:18:36.308Z,300
2023-11-18T10:19:52.489Z,316
2023-11-18T10:21:08.660Z,320
2023-11-18T10:22:24.839Z,316
2023-11-18T10:23:40.998Z,304
2023-11-18T10:24:57.165Z,296
2023-11-18T10:26:13.334Z,288
2023-11-18T10:27:29.520Z,276
2023-11-18T10:28:45.678Z,248
2023-11-18T10:30:01.842Z,216
2023-11-18T10:31:18.001Z,188
2023-11-18T10:32:33.198Z,172
2023-11-18T10:33:49.369Z,168
2023-11-18T10:35:05.536Z,168
2023-11-18T10:36:21.706Z,168
2023-11-18T10:37:37.867Z,160
2023-11-18T10:40:10.170Z,136
2023-11-18T10:41:26.338Z,120
2023-11-18T10:42:42.507Z,108
2023-11-18T10:43:58.665Z,100
2023-11-18T10:45:14.830Z,100
2023-11-18T10:46:30.998Z,100
2023-11-18T10:47:47.180Z,96
2023-11-18T10:49:03.342Z,96
2023-11-18T10:50:18.529Z,108
2023-11-18T10:51:34.697Z,116
2023-11-18T10:52:50.848Z,124
2023-11-18T10:54:07.031Z,132
2023-11-18T10:55:23.182Z,148
2023-11-18T10:56:39.354Z,160
2023-11-18T10:57:55.534Z,168
2023-11-18T10:59:11.698Z,176
2023-11-18T11:00:27.875Z,184
2023-11-18T11:01:44.000Z,192
2023-11-18T11:03:00.214Z,200
2023-11-18T11:04:16.401Z,196
2023-11-18T11:05:32.580Z,180
2023-11-18T11:06:48.751Z,160
2023-11-18T11:08:03.942Z,144
2023-11-18T11:09:20.105Z,140
2023-11-18T11:10:35.312Z,140
2023-11-18T11:11:51.000Z,144
2023-11-18T11:13:07.664Z,156
2023-11-18T11:14:23.833Z,168
2023-11-18T11:15:40.007Z,180
2023-11-18T11:16:56.177Z,192
2023-11-18T11:18:12.344Z,196
2023-11-18T11:19:28.507Z,200
2023-11-18T11:20:44.679Z,204
2023-11-18T11:22:00.851Z,216
2023-11-18T11:23:17.016Z,220
2023-11-18T11:24:33.188Z,224
2023-11-18T11:25:49.353Z,228
2023-11-18T11:27:04.557Z,228
2023-11-18T11:28:20.716Z,240
2023-11-18T11:29:36.889Z,244
2023-11-18T11:30:53.045Z,240
2023-11-18T11:32:09.226Z,248
2023-11-18T11:33:25.404Z,252
2023-11-18T11:34:41.569Z,256
2023-11-18T11:35:57.748Z,264
2023-11-18T11:37:13.926Z,272
2023-11-18T11:38:30.091Z,276
2023-11-18T11:39:46.277Z,276
2023-11-18T11:41:02.450Z,272
2023-11-18T11:42:18.621Z,256
2023-11-18T11:43:33.813Z,248
2023-11-18T11:44:49.998Z,244
2023-11-18T11:46:06.176Z,248
2023-11-18T11:47:22.344Z,252
2023-11-18T11:48:38.521Z,252
2023-11-18T11:49:54.685Z,248
2023-11-18T11:51:10.864Z,240
2023-11-18T11:52:27.030Z,220
2023-11-18T11:53:43.209Z,200
2023-11-18T11:54:59.386Z,188
2023-11-18T11:56:15.553Z,168
2023-11-18T11:57:31.728Z,152
2023-11-18T11:58:47.897Z,136
2023-11-18T12:00:03.094Z,124
2023-11-18T12:01:19.273Z,116
2023-11-18T12:02:35.424Z,108
2023-11-18T12:03:51.609Z,108
2023-11-18T12:05:07.766Z,108
2023-11-18T12:06:23.948Z,108
2023-11-18T12:07:40.119Z,112
2023-11-18T12:08:56.286Z,112
2023-11-18T12:10:12.449Z,112
2023-11-18T12:11:28.633Z,108
2023-11-18T12:12:44.799Z,100
2023-11-18T12:14:00.965Z,96
2023-11-18T12:15:17.136Z,92
2023-11-18T12:16:33.302Z,92
2023-11-18T12:17:48.498Z,88
2023-11-18T12:19:04.663Z,88
2023-11-18T12:20:20.823Z,88
2023-11-18T12:21:37.008Z,92
2023-11-18T12:22:53.168Z,88
2023-11-18T12:24:09.337Z,96
2023-11-18T12:25:25.508Z,100
2023-11-18T12:26:41.670Z,112
2023-11-18T12:27:57.839Z,112
2023-11-18T12:29:14.011Z,116
2023-11-18T12:30:30.184Z,116
2023-11-18T12:31:46.348Z,116
2023-11-18T12:33:02.514Z,120
2023-11-18T12:34:18.685Z,124
2023-11-18T12:35:33.868Z,120
2023-11-18T12:36:50.049Z,120
2023-11-18T12:38:06.212Z,120
2023-11-18T12:39:22.392Z,124
2023-11-18T12:40:38.571Z,128
2023-11-18T12:41:54.743Z,132
2023-11-18T12:43:10.918Z,132
2023-11-18T12:44:27.101Z,144
2023-11-18T12:45:43.259Z,156
2023-11-18T12:46:59.449Z,164
2023-11-18T12:48:15.623Z,168
2023-11-18T12:49:31.789Z,180
2023-11-18T12:50:47.969Z,188
2023-11-18T12:52:04.124Z,204
2023-11-18T12:53:19.324Z,232
2023-11-18T12:54:35.495Z,268
2023-11-18T12:55:51.652Z,288
2023-11-18T12:57:07.831Z,308
2023-11-18T12:58:24.002Z,316
2023-11-18T12:59:40.183Z,308
2023-11-18T13:00:56.349Z,304
2023-11-18T13:02:12.519Z,316
2023-11-18T13:03:28.678Z,304
2023-11-18T13:04:44.857Z,276
2023-11-18T13:06:01.029Z,272
2023-11-18T13:07:17.186Z,264
2023-11-18T13:08:33.366Z,264
2023-11-18T13:09:49.518Z,276
2023-11-18T13:11:04.719Z,272
2023-11-18T13:12:20.881Z,260
2023-11-18T13:13:37.057Z,228
2023-11-18T13:14:53.222Z,208
2023-11-18T13:16:09.397Z,200
2023-11-18T13:17:25.576Z,172
2023-11-18T13:18:41.745Z,156
2023-11-18T13:19:57.912Z,160
2023-11-18T13:21:14.083Z,160
2023-11-18T13:22:30.261Z,160
2023-11-18T13:23:46.436Z,152
2023-11-18T13:25:02.622Z,152
2023-11-18T13:26:18.781Z,156
2023-11-18T13:27:34.952Z,156
2023-11-18T13:28:50.155Z,148
2023-11-18T13:30:06.323Z,144
2023-11-18T13:31:22.483Z,132
2023-11-18T13:32:38.670Z,128
2023-11-18T13:33:54.842Z,132
2023-11-18T13:35:11.013Z,132
2023-11-18T13:36:27.200Z,136
2023-11-18T13:37:43.366Z,128
2023-11-18T13:38:59.536Z,132
2023-11-18T13:40:15.726Z,132
2023-11-18T13:41:31.896Z,116
2023-11-18T13:42:48.068Z,112
2023-11-18T13:44:04.260Z,116
2023-11-18T13:45:20.425Z,120
2023-11-18T13:46:35.615Z,120
2023-11-18T13:47:51.794Z,128
2023-11-18T13:49:07.966Z,124
2023-11-18T13:50:24.131Z,128
2023-11-18T13:51:40.296Z,140
2023-11-18T13:52:56.481Z,152
2023-11-18T13:54:12.650Z,156
2023-11-18T13:55:28.808Z,160
2023-11-18T13:56:44.991Z,160
2023-11-18T13:58:01.159Z,152
2023-11-18T13:59:17.336Z,152
2023-11-18T14:00:33.493Z,144
2023-11-18T14:01:49.685Z,136
2023-11-18T14:03:05.851Z,140
2023-11-18T14:04:21.051Z,124
2023-11-18T14:05:37.207Z,116
2023-11-18T14:06:53.392Z,100
2023-11-18T14:08:09.557Z,92
2023-11-18T14:09:25.727Z,100
2023-11-18T14:10:41.909Z,100
2023-11-18T14:11:58.076Z,100
2023-11-18T14:13:14.260Z,96
2023-11-18T14:14:30.427Z,112
2023-11-18T14:15:46.599Z,96
2023-11-18T14:17:02.775Z,64
2023-11-18T14:18:18.956Z,68
2023-11-18T14:19:35.124Z,76
2023-11-18T14:20:51.298Z,72
2023-11-18T14:22:06.482Z,68
2023-11-18T14:23:22.654Z,64
2023-11-18T14:24:38.826Z,68
2023-11-18T14:25:55.005Z,60
2023-11-18T14:27:11.184Z,60
2023-11-18T14:28:27.356Z,68
2023-11-18T14:29:43.518Z,84
2023-11-18T14:30:59.701Z,92
2023-11-18T14:32:15.876Z,76
2023-11-18T14:33:32.051Z,68
2023-11-18T14:34:48.201Z,64
2023-11-18T14:36:04.374Z,56
2023-11-18T14:37:20.541Z,48
2023-11-18T14:38:36.711Z,40
2023-11-18T14:39:51.896Z,32
2023-11-18T14:41:08.054Z,28
2023-11-18T14:42:24.224Z,24
2023-11-18T14:43:40.381Z,24
2023-11-18T14:44:56.561Z,24
2023-11-18T14:46:12.720Z,24
2023-11-18T14:47:28.885Z,24
2023-11-18T14:48:45.064Z,28
2023-11-18T14:50:01.228Z,32
2023-11-18T14:51:17.378Z,32
2023-11-18T14:52:33.543Z,24
2023-11-18T14:53:49.710Z,20
2023-11-18T14:55:05.873Z,24
2023-11-18T14:56:22.051Z,28
2023-11-18T14:57:37.249Z,28
2023-11-18T14:58:53.404Z,20
2023-11-18T15:00:09.579Z,20
2023-11-18T15:01:25.737Z,20
2023-11-18T15:02:41.916Z,16
2023-11-18T15:03:58.088Z,16
2023-11-18T15:05:14.262Z,16
2023-11-18T15:06:30.448Z,12
2023-11-18T15:07:46.618Z,12
2023-11-18T15:09:02.784Z,8
2023-11-18T15:10:18.955Z,4
2023-11-18T15:11:35.125Z,4
2023-11-18T15:12:51.288Z,4
2023-11-18T15:14:07.451Z,8
2023-11-18T15:15:22.635Z,8
2023-11-18T15:16:38.798Z,8
2023-11-18T15:17:54.969Z,4
2023-11-18T15:19:11.143Z,4
2023-11-18T15:20:27.314Z,8
2023-11-18T15:21:43.494Z,8
2023-11-18T15:22:59.659Z,4
2023-11-18T15:24:15.844Z,4
2023-11-18T15:25:32.018Z,0
2023-11-18T15:26:47.209Z,4
2023-11-18T15:28:03.378Z,4
2023-11-18T15:29:19.551Z,4
2023-11-18T15:30:35.725Z,4
2023-11-18T15:31:51.894Z,4
2023-11-18T15:33:08.074Z,4
2023-11-18T15:34:24.242Z,4
2023-11-18T15:35:40.410Z,0
2023-11-18T15:36:56.575Z,0
2023-11-18T15:38:12.761Z,0
2023-11-18T15:39:28.928Z,0
2023-11-18T15:40:45.100Z,0
2023-11-18T15:42:01.256Z,0
2023-11-18T15:43:17.428Z,0
2023-11-18T15:44:33.606Z,0
2023-11-18T15:45:48.790Z,0
2023-11-18T15:47:04.964Z,0
2023-11-18T15:48:21.134Z,0
2023-11-18T15:49:37.314Z,0
2023-11-18T15:50:53.492Z,0
2023-11-18T15:52:09.663Z,0
2023-11-18T15:53:25.838Z,0
2023-11-18T15:54:41.995Z,0
2023-11-18T15:55:58.173Z,0
2023-11-18T15:57:14.353Z,0
2023-11-18T15:58:30.531Z,0
2023-11-18T15:59:46.704Z,0
2023-11-18T16:01:02.876Z,0
2023-11-18T16:02:18.058Z,0
2023-11-18T16:03:34.241Z,0
2023-11-18T16:04:50.421Z,0
2023-11-18T16:06:06.596Z,0
2023-11-18T16:07:22.761Z,0
2023-11-18T16:08:38.925Z,0
2023-11-18T16:09:55.107Z,0
2023-11-18T16:11:11.285Z,0
2023-11-18T16:12:27.446Z,0
2023-11-18T16:13:43.620Z,0
2023-11-18T16:14:59.806Z,0
2023-11-18T16:16:15.966Z,0
2023-11-18T16:17:32.133Z,0
2023-11-18T16:18:48.309Z,0
2023-11-18T16:20:03.492Z,0
2023-11-18T16:21:19.658Z,0
2023-11-18T16:22:35.830Z,0
2023-11-18T16:23:52.008Z,0
2023-11-18T16:25:08.166Z,0
2023-11-18T16:26:24.323Z,0
2023-11-18T16:27:40.490Z,0
2023-11-18T16:28:56.667Z,0
2023-11-18T16:30:12.846Z,0
2023-11-18T16:31:29.011Z,0
2023-11-18T16:32:45.187Z,0
2023-11-18T16:34:01.366Z,0
2023-11-18T16:35:17.534Z,0
2023-11-18T16:36:33.712Z,0
2023-11-18T16:37:48.885Z,0
2023-11-18T16:39:05.063Z,0
2023-11-18T16:40:21.227Z,0
2023-11-18T16:41:37.406Z,0
2023-11-18T16:42:53.592Z,0
2023-11-18T16:44:09.757Z,0
2023-11-18T16:45:25.929Z,0
2023-11-18T16:46:42.116Z,0
2023-11-18T16:47:58.289Z,0
2023-11-18T16:49:14.445Z,0
2023-11-18T16:50:30.633Z,0
2023-11-18T16:51:46.802Z,0
2023-11-18T16:53:02.981Z,0
2023-11-18T16:54:19.157Z,0
2023-11-18T16:55:34.333Z,0
2023-11-18T16:56:50.508Z,0
2023-11-18T16:58:06.695Z,0
2023-11-18T16:59:22.860Z,0
2023-11-18T17:00:39.047Z,0
2023-11-18T17:01:55.218Z,0
2023-11-18T17:03:11.395Z,0
2023-11-18T17:04:27.576Z,0
2023-11-18T17:05:43.756Z,0
2023-11-18T17:06:59.934Z,0
2023-11-18T17:08:16.106Z,0
2023-11-18T17:09:32.285Z,0
2023-11-18T17:10:48.470Z,0
2023-11-18T17:12:04.644Z,0
2023-11-18T17:13:20.829Z,0
2023-11-18T17:14:36.019Z,0
2023-11-18T17:15:52.199Z,0
2023-11-18T17:17:08.377Z,0
2023-11-18T17:18:24.564Z,0
2023-11-18T17:19:40.721Z,0
2023-11-18T17:20:56.914Z,0
2023-11-18T17:22:13.078Z,0
2023-11-18T17:23:29.259Z,0
2023-11-18T17:24:45.433Z,0
2023-11-18T17:26:01.611Z,0
2023-11-18T17:27:17.789Z,0
2023-11-18T17:28:33.969Z,0
2023-11-18T17:29:50.155Z,0
2023-11-18T17:31:05.337Z,0
2023-11-18T17:32:21.512Z,0
2023-11-18T17:33:37.682Z,0
2023-11-18T17:34:53.846Z,0
2023-11-18T17:36:10.025Z,0
2023-11-18T17:37:26.193Z,0
2023-11-18T17:38:42.358Z,0
2023-11-18T17:39:58.540Z,0
2023-11-18T17:41:14.713Z,0
2023-11-18T17:42:30.891Z,0
2023-11-18T17:43:47.071Z,0
2023-11-18T17:45:03.236Z,0
2023-11-18T17:46:19.394Z,0
2023-11-18T17:47:35.565Z,0
2023-11-18T17:48:50.756Z,0
2023-11-18T17:50:06.928Z,0
2023-11-18T17:51:23.103Z,0
2023-11-18T17:52:39.286Z,0
2023-11-18T17:53:55.445Z,0
2023-11-18T17:55:11.632Z,0
2023-11-18T17:56:27.795Z,0
2023-11-18T17:57:43.981Z,0
2023-11-18T17:59:00.140Z,0
2023-11-18T18:00:16.311Z,0
2023-11-18T18:01:32.505Z,0
2023-11-18T18:02:48.661Z,0
2023-11-18T18:04:04.847Z,0
2023-11-18T18:05:21.013Z,0
2023-11-18T18:06:36.197Z,0
2023-11-18T18:07:52.375Z,0
2023-11-18T18:09:08.562Z,0
2023-11-18T18:10:24.731Z,0
2023-11-18T18:11:40.905Z,0
2023-11-18T18:12:57.085Z,0
2023-11-18T18:14:13.245Z,0
2023-11-18T18:15:29.425Z,0
2023-11-18T18:16:45.594Z,0
2023-11-18T18:18:01.751Z,0